Latest Weather Observations for Witchcliffe

IDW60801

Issued at 10:13 am WST Thursday 21 March 2019 (issued every 10 minutes, with the page automatically refreshed every 10 minutes)

About weather observations | Map of weather stations | Latest weather observations for WA | Other Formats
Station Details ID: 009746 Name: WITCHCLIFFE Lat: -34.03 Lon: 115.10 Height: 80.0 m
Data from the previous 72 hours. | See also: Recent months at Witchcliffe
Date/Time
WST
Temp
°C
App
Temp
°C
Dew
Point
°C
Rel
Hum
%
Delta-T
°C
Wind Press
QNH
hPa
Press
MSL
hPa
Rain since
9am
mm
Dir  Spd
km/h
Gust
km/h
Spd
kts
Gust
kts
21/10:00am 21.8 18.9 17.0 74 2.9 SSE 28 41 15 22 1013.3 1013.1 0.0
21/09:30am 22.3 19.5 17.2 73 3.1 SSE 28 41 15 22 1013.6 1013.4 0.0
21/09:00am 21.0 18.8 17.0 78 2.4 SE 24 39 13 21 1013.7 1013.5 0.4
21/08:30am 20.5 18.5 17.3 82 2.0 SE 24 35 13 19 1013.6 1013.4 0.4
21/08:00am 19.8 17.7 17.2 85 1.6 SSE 24 32 13 17 1013.5 1013.3 0.4
21/07:30am 19.3 16.7 16.9 86 1.5 SSE 26 39 14 21 1013.3 1013.1 0.4
21/07:00am 19.1 17.7 17.1 88 1.2 SSE 20 28 11 15 1013.2 1013.0 0.4
21/06:30am 19.0 17.2 17.0 88 1.2 SE 22 32 12 17 1012.8 1012.6 0.4
21/06:00am 18.9 17.6 17.2 90 1.0 SE 20 33 11 18 1012.6 1012.4 0.4
21/05:30am 18.8 16.8 17.3 91 0.9 SE 24 32 13 17 1011.9 1011.7 0.4
21/05:00am 18.7 17.1 17.5 93 0.7 SE 22 35 12 19 1011.9 1011.7 0.4
21/04:30am 18.6 17.5 17.4 93 0.7 SE 19 28 10 15 1011.9 1011.7 0.4
21/04:00am 18.6 17.2 17.1 91 0.9 SE 20 30 11 16 1011.9 1011.7 0.4
21/03:30am 18.7 17.1 17.4 92 0.8 SE 22 32 12 17 1012.2 1012.0 0.4
21/03:00am 18.7 17.5 17.4 92 0.8 SE 20 33 11 18 1012.5 1012.3 0.4
21/02:30am 18.7 17.6 17.4 92 0.8 SE 19 28 10 15 1012.7 1012.5 0.4
21/02:00am 18.7 17.5 17.4 92 0.8 SE 20 30 11 16 1012.7 1012.5 0.4
21/01:30am 18.6 16.8 16.9 90 1.0 SE 22 32 12 17 1012.6 1012.4 0.4
21/01:00am 18.6 16.4 16.8 89 1.1 SE 24 32 13 17 1012.9 1012.7 0.4
21/12:30am 18.7 17.2 16.7 88 1.2 SE 20 30 11 16 1013.2 1013.0 0.4
21/12:00am 18.8 16.9 16.8 88 1.2 SE 22 35 12 19 1013.5 1013.3 0.4
 
Date/Time
WST
Temp
°C
App
Temp
°C
Dew
Point
°C
Rel
Hum
%
Delta-T
°C
Wind Press
QNH
hPa
Press
MSL
hPa
Rain since
9am
mm
Dir  Spd
km/h
Gust
km/h
Spd
kts
Gust
kts
20/11:30pm 18.7 16.8 16.7 88 1.2 SE 22 33 12 18 1013.9 1013.7 0.4
20/11:00pm 18.6 16.4 16.8 89 1.1 SE 24 43 13 23 1014.0 1013.8 0.4
20/10:30pm 18.4 15.8 16.9 91 0.9 SE 26 41 14 22 1013.9 1013.7 0.4
20/10:00pm 18.4 15.4 16.9 91 0.9 SE 28 39 15 21 1014.2 1014.0 0.4
20/09:30pm 18.5 15.1 16.8 90 1.0 SE 30 44 16 24 1014.5 1014.3 0.4
20/09:00pm 18.5 15.7 17.2 92 0.8 SE 28 48 15 26 1014.5 1014.3 0.4
20/08:30pm 18.6 15.7 17.1 91 0.9 SE 28 46 15 25 1014.5 1014.3 0.4
20/08:14pm 18.6 15.3 16.9 90 1.0 SE 30 48 16 26 1014.3 1014.1 0.4
20/08:00pm 18.7 15.0 17.0 90 1.0 SE 32 44 17 24 1014.2 1014.0 0.4
20/07:32pm 18.7 15.0 17.0 90 1.0 SE 32 50 17 27 1013.8 1013.6 0.4
20/07:30pm 18.6 15.3 16.9 90 1.0 SE 30 46 16 25 1013.9 1013.7 0.4
20/07:08pm 18.7 15.4 17.0 90 1.0 SSE 30 50 16 27 1013.7 1013.5 0.4
20/07:00pm 18.7 15.0 17.0 90 1.0 SSE 32 46 17 25 1013.5 1013.3 0.4
20/06:30pm 18.8 15.2 17.1 90 1.0 SSE 32 46 17 25 1013.2 1013.0 0.4
20/06:00pm 19.2 15.4 17.2 88 1.2 SSE 33 54 18 29 1013.3 1013.1 0.4
20/05:53pm 19.3 15.7 17.3 88 1.2 SSE 32 50 17 27 1013.3 1013.1 0.4
20/05:30pm 19.5 15.9 17.3 87 1.3 SSE 32 44 17 24 1013.1 1012.9 0.4
20/05:00pm 19.9 16.3 17.3 85 1.6 SSE 32 48 17 26 1012.9 1012.7 0.4
20/04:42pm 20.3 17.0 17.1 82 2.0 SSE 30 48 16 26 1012.9 1012.7 0.4
20/04:30pm 20.9 17.8 17.5 81 2.1 SSE 30 43 16 23 1012.9 1012.7 0.4
20/04:16pm 20.9 17.3 17.3 80 2.2 SSE 32 50 17 27 1012.9 1012.7 0.4
20/04:00pm 21.4 18.7 17.6 79 2.4 SSE 28 43 15 23 1013.1 1012.9 0.4
20/03:30pm 21.8 19.6 17.8 78 2.5 SSE 26 35 14 19 1013.1 1012.9 0.4
20/03:00pm 21.7 18.9 18.1 80 2.2 SSE 30 43 16 23 1013.1 1012.9 0.4
20/02:30pm 22.6 20.6 18.4 77 2.6 SSE 26 41 14 22 1013.0 1012.8 0.4
20/02:00pm 20.9 20.0 18.3 85 1.6 SSE 20 32 11 17 1013.3 1013.1 0.2
20/01:30pm 21.7 19.0 17.5 77 2.6 SSE 28 39 15 21 1013.1 1012.9 0.0
20/01:00pm 23.3 20.3 16.8 67 4.0 SSE 28 35 15 19 1013.4 1013.2 0.0
20/12:30pm 24.6 22.0 17.8 66 4.3 SSE 28 41 15 22 1013.6 1013.4 0.0
20/12:00pm 23.9 21.7 16.9 65 4.3 SE 24 39 13 21 1014.0 1013.8 0.0
20/11:30am 23.6 20.3 17.1 67 4.0 SSE 30 41 16 22 1014.2 1014.0 0.0
20/11:00am 23.2 21.4 17.0 68 3.8 SSE 22 33 12 18 1014.4 1014.2 0.0
20/10:30am 23.0 21.1 17.7 72 3.3 SE 24 35 13 19 1014.6 1014.4 0.0
20/10:00am 22.5 20.6 17.6 74 3.0 SE 24 33 13 18 1014.8 1014.6 0.0
20/09:30am 21.6 19.2 17.4 77 2.6 SE 26 41 14 22 1014.7 1014.5 0.0
20/09:00am 21.0 19.3 18.0 83 1.9 SE 24 37 13 20 1014.6 1014.4 0.0
20/08:30am 20.8 19.1 18.0 84 1.7 SE 24 33 13 18 1014.4 1014.2 0.0
20/08:00am 20.1 18.8 18.1 88 1.2 SE 22 33 12 18 1014.3 1014.1 0.0
20/07:30am 19.8 18.4 17.9 89 1.2 SSE 22 32 12 17 1014.2 1014.0 0.0
20/07:00am 19.7 18.7 18.0 90 1.1 SE 20 30 11 16 1013.7 1013.5 0.0
20/06:30am 19.6 18.2 17.9 90 1.0 SE 22 32 12 17 1013.3 1013.1 0.0
20/06:00am 19.5 18.5 18.0 91 0.9 SE 20 30 11 16 1013.1 1012.9 0.0
20/05:30am 19.6 17.9 18.1 91 0.9 SSE 24 33 13 18 1013.0 1012.8 0.0
20/05:00am 19.6 18.7 18.3 92 0.8 SSE 20 32 11 17 1012.8 1012.6 0.0
20/04:30am 19.7 18.9 18.4 92 0.8 SE 20 30 11 16 1012.8 1012.6 0.0
20/04:00am 19.6 19.0 18.4 93 0.7 SSE 19 26 10 14 1012.6 1012.4 0.0
20/03:30am 19.5 19.4 18.7 95 0.5 SSE 17 22 9 12 1012.4 1012.2 0.0
20/03:00am 19.6 19.4 18.6 94 0.6 SSE 17 26 9 14 1012.2 1012.0 0.0
20/02:30am 19.6 19.4 18.6 94 0.6 SE 17 24 9 13 1012.1 1011.9 0.0
20/02:00am 19.7 19.2 18.7 94 0.6 SE 19 24 10 13 1012.0 1011.8 0.0
20/01:30am 19.8 19.6 18.6 93 0.8 SE 17 28 9 15 1012.1 1011.9 0.0
20/01:00am 20.0 19.6 18.8 93 0.8 SE 19 26 10 14 1012.1 1011.9 0.0
20/12:30am 20.1 19.7 18.9 93 0.8 SE 19 30 10 16 1012.4 1012.2 0.0
20/12:00am 20.1 18.7 18.9 93 0.8 SE 24 35 13 19 1012.7 1012.5 0.0
 
Date/Time
WST
Temp
°C
App
Temp
°C
Dew
Point
°C
Rel
Hum
%
Delta-T
°C
Wind Press
QNH
hPa
Press
MSL
hPa
Rain since
9am
mm
Dir  Spd
km/h
Gust
km/h
Spd
kts
Gust
kts
19/11:30pm 20.3 19.0 19.1 93 0.8 SSE 24 35 13 19 1012.4 1012.2 0.0
19/11:00pm 20.3 19.6 19.5 95 0.5 SSE 22 33 12 18 1012.3 1012.1 0.0
19/10:30pm 20.2 19.9 19.5 96 0.4 SSE 20 28 11 15 1012.3 1012.1 0.0
19/10:00pm 20.3 20.8 19.3 94 0.6 SSE 15 20 8 11 1012.4 1012.2 0.0
19/09:30pm 20.5 20.5 19.0 91 0.9 SSE 17 24 9 13 1012.3 1012.1 0.0
19/09:00pm 20.8 21.3 18.4 86 1.5 SSE 13 20 7 11 1012.3 1012.1 0.0
19/08:30pm 21.1 20.9 17.5 80 2.2 SSE 15 19 8 10 1012.4 1012.2 0.0
19/08:00pm 21.9 20.5 15.5 67 3.8 SSE 17 22 9 12 1012.3 1012.1 0.0
19/07:30pm 22.5 22.0 14.9 62 4.5 SSE 11 15 6 8 1011.8 1011.6 0.0
19/07:00pm 23.0 22.6 15.1 61 4.7 SSE 11 15 6 8 1011.1 1010.9 0.0
19/06:30pm 23.6 22.4 15.1 59 5.1 SE 15 20 8 11 1010.6 1010.3 0.0
19/06:00pm 24.7 22.8 15.3 56 5.7 SSE 19 26 10 14 1010.2 1009.9 0.0
19/05:30pm 26.3 24.5 16.0 53 6.3 SSE 20 28 11 15 1009.6 1009.3 0.0
19/05:00pm 27.9 28.0 16.5 50 7.1 SSE 11 17 6 9 1009.4 1009.1 0.0
19/04:30pm 28.3 28.1 16.6 49 7.3 S 13 17 7 9 1009.7 1009.4 0.0
19/04:00pm 28.9 29.2 16.1 46 8.0 WSW 9 13 5 7 1009.7 1009.4 0.0
19/03:30pm 29.7 29.3 16.1 43 8.5 W 13 17 7 9 1009.9 1009.6 0.0
19/03:00pm 30.3 30.2 17.0 44 8.4 NW 13 19 7 10 1009.8 1009.5 0.0
19/02:30pm 31.0 30.8 15.8 40 9.5 NNW 11 33 6 18 1009.8 1009.5 0.0
19/02:00pm 31.4 32.3 16.2 40 9.6 NW 6 11 3 6 1009.7 1009.4 0.0
19/01:30pm 30.6 30.8 15.8 40 9.2 NW 9 15 5 8 1009.8 1009.5 0.0
19/01:00pm 29.8 29.5 15.5 42 8.8 WSW 11 17 6 9 1010.1 1009.8 0.0
19/12:30pm 29.7 29.2 15.8 43 8.6 NW 13 20 7 11 1010.3 1010.0 0.0
19/12:00pm 30.1 28.4 14.6 39 9.5 N 17 24 9 13 1010.6 1010.3 0.0
19/11:30am 29.8 27.1 14.7 39 9.2 N 22 28 12 15 1010.7 1010.4 0.0
19/11:00am 29.8 27.7 15.1 40 9.0 NNW 20 30 11 16 1010.7 1010.4 0.0
19/10:30am 28.6 26.5 14.8 43 8.4 NNE 19 28 10 15 1011.1 1010.9 0.0
19/10:00am 28.5 27.0 15.4 45 8.0 NNE 17 24 9 13 1011.3 1011.1 0.0
19/09:30am 27.4 26.3 15.4 48 7.3 N 15 22 8 12 1011.5 1011.3 0.0
19/09:00am 26.7 25.6 15.4 50 6.9 N 15 26 8 14 1011.4 1011.2 0.0
19/08:30am 25.9 25.7 15.6 53 6.3 NNE 11 19 6 10 1011.1 1010.9 0.0
19/08:00am 24.6 24.6 15.2 55 5.7 NNE 9 19 5 10 1011.1 1010.9 0.0
19/07:30am 23.7 23.8 15.5 60 4.9 NNE 9 17 5 9 1011.0 1010.7 0.0
19/07:00am 21.9 23.7 15.5 67 3.8 CALM 0 6 0 3 1010.7 1010.4 0.0
19/06:30am 22.0 22.5 15.1 65 4.1 NNE 6 13 3 7 1010.5 1010.2 0.0
19/06:00am 22.1 22.0 15.0 64 4.2 NNE 9 15 5 8 1010.3 1010.0 0.0
19/05:30am 22.3 21.9 15.2 64 4.2 N 11 19 6 10 1010.2 1009.9 0.0
19/05:00am 22.4 22.4 15.3 64 4.3 NNE 9 19 5 10 1010.2 1009.9 0.0
19/04:30am 22.3 22.4 15.6 66 4.0 NNE 9 19 5 10 1010.2 1009.9 0.0
19/04:00am 21.8 22.4 15.9 69 3.6 NNE 7 11 4 6 1010.3 1010.0 0.0
19/03:30am 21.5 21.6 15.6 69 3.5 NNE 9 13 5 7 1010.2 1009.9 0.0
19/03:00am 21.7 22.4 16.0 70 3.4 NNE 7 11 4 6 1010.3 1010.0 0.0
19/02:30am 21.9 22.8 16.2 70 3.5 NNE 6 11 3 6 1010.5 1010.2 0.0
19/02:00am 21.7 22.6 16.2 71 3.3 NNE 6 7 3 4 1010.6 1010.3 0.0
19/01:30am 22.0 22.8 16.3 70 3.5 NNE 7 9 4 5 1010.7 1010.4 0.0
19/01:00am 22.2 23.1 16.5 70 3.5 NNE 7 11 4 6 1010.6 1010.3 0.0
19/12:30am 21.5 22.7 17.3 77 2.6 NE 7 13 4 7 1010.8 1010.5 0.0
19/12:00am 19.3 22.1 18.0 92 0.8 CALM 0 0 0 0 1010.9 1010.6 0.0
 
Date/Time
WST
Temp
°C
App
Temp
°C
Dew
Point
°C
Rel
Hum
%
Delta-T
°C
Wind Press
QNH
hPa
Press
MSL
hPa
Rain since
9am
mm
Dir  Spd
km/h
Gust
km/h
Spd
kts
Gust
kts
18/11:30pm 19.2 21.9 17.7 91 0.9 CALM 0 0 0 0 1011.0 1010.7 0.0
18/11:00pm 19.7 22.6 18.2 91 0.9 CALM 0 0 0 0 1011.2 1011.0 0.0
18/10:30pm 19.8 21.6 18.3 91 0.9 SSE 6 9 3 5 1011.1 1010.9 0.0
18/10:00pm 20.3 22.1 18.4 89 1.2 ESE 6 13 3 7 1011.4 1011.2 0.0
18/09:30pm 20.9 21.8 18.5 86 1.5 SE 11 17 6 9 1011.4 1011.2 0.0
18/09:00pm 20.9 22.2 18.5 86 1.5 SE 9 11 5 6 1011.0 1010.7 0.0
18/08:30pm 20.9 22.5 18.3 85 1.6 SSE 7 9 4 5 1011.1 1010.9 0.0
18/08:00pm 21.3 22.5 18.3 83 1.9 SE 9 13 5 7 1010.9 1010.6 0.0
18/07:30pm 21.6 22.8 18.2 81 2.1 SSE 9 13 5 7 1010.8 1010.5 0.0
18/07:00pm 22.1 22.9 18.1 78 2.5 SSE 11 15 6 8 1010.7 1010.4 0.0
18/06:30pm 22.7 23.4 18.0 75 2.9 SSE 11 17 6 9 1010.6 1010.3 0.0
18/06:00pm 23.6 24.3 18.0 71 3.5 S 11 15 6 8 1010.7 1010.4 0.0
18/05:30pm 24.5 24.9 18.2 68 4.0 S 13 17 7 9 1010.7 1010.4 0.0
18/05:00pm 25.1 26.0 18.3 66 4.3 SSE 11 15 6 8 1010.9 1010.6 0.0
18/04:30pm 25.4 25.8 18.1 64 4.6 SE 13 15 7 8 1011.1 1010.9 0.0
18/04:00pm 25.8 25.5 18.2 63 4.8 SSE 17 26 9 14 1011.0 1010.7 0.0
18/03:30pm 25.8 24.8 18.0 62 4.9 SSE 20 28 11 15 1011.0 1010.7 0.0
18/03:00pm 26.8 25.7 17.8 57 5.7 SSE 20 28 11 15 1011.1 1010.9 0.0
18/02:30pm 27.0 25.9 17.8 57 5.8 SSE 20 28 11 15 1011.5 1011.3 0.0
18/02:00pm 27.6 26.7 17.7 54 6.3 SSE 19 26 10 14 1011.7 1011.5 0.0
18/01:30pm 28.3 28.3 18.1 54 6.5 SSE 15 22 8 12 1012.0 1011.8 0.0
18/01:00pm 29.5 29.9 17.3 47 7.7 ESE 11 20 6 11 1012.3 1012.1 0.0
18/12:30pm 28.1 28.0 17.0 51 7.0 ESE 13 19 7 10 1012.7 1012.5 0.0
18/12:00pm 27.9 28.0 17.4 52 6.6 SE 13 22 7 12 1013.2 1013.0 0.0
18/11:30am 27.1 27.3 17.6 56 6.0 ESE 13 26 7 14 1013.9 1013.7 0.0
18/11:00am 26.2 26.2 17.3 58 5.6 ESE 13 22 7 12 1014.4 1014.2 0.0
18/10:30am 25.2 24.7 17.7 63 4.7 ESE 17 24 9 13 1015.0 1014.8 0.0

Other formats

Comma delimited format used in spreadsheet applications
http://www.bom.gov.au/fwo/IDW60801/IDW60801.95641.axf

JavaScript Object Notation format (JSON) in row-major order
http://www.bom.gov.au/fwo/IDW60801/IDW60801.95641.json

Data quality

Most of these data are generated automatically and are frequently updated. Quality checks on data are not normally performed. It is possible for incorrect values to appear. Refer to information at About Latest Weather Observations and please check the disclaimer before using these data.